sensor_id;sensor_type;location;lat;lon;timestamp;P1;durP1;ratioP1;P2;durP2;ratioP2
4432;SDS011;2229;48.708;9.706;2024-01-30T00:00:58;8.70;;;3.87;;
4432;SDS011;2229;48.708;9.706;2024-01-30T00:03:26;6.40;;;3.30;;
4432;SDS011;2229;48.708;9.706;2024-01-30T00:05:55;4.70;;;2.97;;
4432;SDS011;2229;48.708;9.706;2024-01-30T00:08:22;4.17;;;2.57;;
4432;SDS011;2229;48.708;9.706;2024-01-30T00:10:49;6.93;;;3.70;;
4432;SDS011;2229;48.708;9.706;2024-01-30T00:13:16;9.60;;;4.68;;
4432;SDS011;2229;48.708;9.706;2024-01-30T00:15:45;7.07;;;3.37;;
4432;SDS011;2229;48.708;9.706;2024-01-30T00:18:12;6.30;;;4.10;;
4432;SDS011;2229;48.708;9.706;2024-01-30T00:20:40;13.10;;;4.93;;
4432;SDS011;2229;48.708;9.706;2024-01-30T00:23:08;11.30;;;5.67;;
4432;SDS011;2229;48.708;9.706;2024-01-30T00:25:35;7.13;;;3.57;;
4432;SDS011;2229;48.708;9.706;2024-01-30T00:28:02;7.03;;;3.83;;
4432;SDS011;2229;48.708;9.706;2024-01-30T00:30:30;6.10;;;3.80;;
4432;SDS011;2229;48.708;9.706;2024-01-30T00:32:57;4.67;;;3.37;;
4432;SDS011;2229;48.708;9.706;2024-01-30T00:35:24;8.27;;;3.50;;
4432;SDS011;2229;48.708;9.706;2024-01-30T00:37:52;4.60;;;3.20;;
4432;SDS011;2229;48.708;9.706;2024-01-30T00:40:19;6.27;;;3.30;;
4432;SDS011;2229;48.708;9.706;2024-01-30T00:42:46;5.93;;;3.67;;
4432;SDS011;2229;48.708;9.706;2024-01-30T00:45:14;7.27;;;3.33;;
4432;SDS011;2229;48.708;9.706;2024-01-30T00:47:41;7.83;;;3.63;;
4432;SDS011;2229;48.708;9.706;2024-01-30T00:50:08;3.10;;;2.17;;
4432;SDS011;2229;48.708;9.706;2024-01-30T00:52:36;7.90;;;3.50;;
4432;SDS011;2229;48.708;9.706;2024-01-30T00:55:06;8.40;;;3.50;;
4432;SDS011;2229;48.708;9.706;2024-01-30T00:57:33;6.27;;;3.27;;
4432;SDS011;2229;48.708;9.706;2024-01-30T01:00:00;4.77;;;2.80;;
4432;SDS011;2229;48.708;9.706;2024-01-30T01:02:28;9.63;;;3.67;;
4432;SDS011;2229;48.708;9.706;2024-01-30T01:04:55;8.20;;;3.20;;
4432;SDS011;2229;48.708;9.706;2024-01-30T01:07:22;6.37;;;3.53;;
4432;SDS011;2229;48.708;9.706;2024-01-30T01:09:49;13.20;;;4.17;;
4432;SDS011;2229;48.708;9.706;2024-01-30T01:12:18;9.73;;;3.27;;
4432;SDS011;2229;48.708;9.706;2024-01-30T01:14:46;11.30;;;3.53;;
4432;SDS011;2229;48.708;9.706;2024-01-30T01:17:14;5.87;;;3.57;;
4432;SDS011;2229;48.708;9.706;2024-01-30T01:19:41;7.00;;;3.77;;
4432;SDS011;2229;48.708;9.706;2024-01-30T01:22:09;8.50;;;4.30;;
4432;SDS011;2229;48.708;9.706;2024-01-30T01:24:38;4.47;;;3.30;;
4432;SDS011;2229;48.708;9.706;2024-01-30T01:27:05;9.67;;;3.73;;
4432;SDS011;2229;48.708;9.706;2024-01-30T01:29:34;12.23;;;4.03;;
4432;SDS011;2229;48.708;9.706;2024-01-30T01:32:01;12.43;;;4.60;;
4432;SDS011;2229;48.708;9.706;2024-01-30T01:34:28;9.40;;;3.90;;
4432;SDS011;2229;48.708;9.706;2024-01-30T01:36:55;8.50;;;3.60;;
4432;SDS011;2229;48.708;9.706;2024-01-30T01:39:22;9.57;;;4.10;;
4432;SDS011;2229;48.708;9.706;2024-01-30T01:41:49;9.10;;;3.83;;
4432;SDS011;2229;48.708;9.706;2024-01-30T01:44:17;8.00;;;3.13;;
4432;SDS011;2229;48.708;9.706;2024-01-30T01:46:45;7.40;;;3.40;;
4432;SDS011;2229;48.708;9.706;2024-01-30T01:49:12;8.63;;;3.50;;
4432;SDS011;2229;48.708;9.706;2024-01-30T01:51:40;8.03;;;4.10;;
4432;SDS011;2229;48.708;9.706;2024-01-30T01:54:09;13.40;;;3.50;;
4432;SDS011;2229;48.708;9.706;2024-01-30T01:56:37;7.57;;;4.40;;
4432;SDS011;2229;48.708;9.706;2024-01-30T01:59:05;9.07;;;4.20;;
4432;SDS011;2229;48.708;9.706;2024-01-30T02:01:34;6.37;;;3.43;;
4432;SDS011;2229;48.708;9.706;2024-01-30T02:04:07;9.50;;;4.10;;
4432;SDS011;2229;48.708;9.706;2024-01-30T02:06:34;10.40;;;3.50;;
4432;SDS011;2229;48.708;9.706;2024-01-30T02:09:02;7.93;;;3.60;;
4432;SDS011;2229;48.708;9.706;2024-01-30T02:11:29;11.37;;;4.70;;
4432;SDS011;2229;48.708;9.706;2024-01-30T02:14:01;8.33;;;3.20;;
4432;SDS011;2229;48.708;9.706;2024-01-30T02:16:29;5.63;;;3.13;;
4432;SDS011;2229;48.708;9.706;2024-01-30T02:18:58;5.47;;;3.33;;
4432;SDS011;2229;48.708;9.706;2024-01-30T02:21:30;7.73;;;3.33;;
4432;SDS011;2229;48.708;9.706;2024-01-30T02:23:58;5.10;;;3.03;;
4432;SDS011;2229;48.708;9.706;2024-01-30T02:26:28;7.77;;;3.10;;
4432;SDS011;2229;48.708;9.706;2024-01-30T02:28:55;4.00;;;2.27;;
4432;SDS011;2229;48.708;9.706;2024-01-30T02:31:22;6.23;;;3.53;;
4432;SDS011;2229;48.708;9.706;2024-01-30T02:33:51;8.63;;;3.40;;
4432;SDS011;2229;48.708;9.706;2024-01-30T02:36:18;7.10;;;3.27;;
4432;SDS011;2229;48.708;9.706;2024-01-30T02:38:46;6.43;;;2.30;;
4432;SDS011;2229;48.708;9.706;2024-01-30T02:41:13;4.27;;;2.77;;
4432;SDS011;2229;48.708;9.706;2024-01-30T02:43:40;8.27;;;3.63;;
4432;SDS011;2229;48.708;9.706;2024-01-30T02:46:08;9.53;;;3.83;;
4432;SDS011;2229;48.708;9.706;2024-01-30T02:48:36;6.70;;;3.93;;
4432;SDS011;2229;48.708;9.706;2024-01-30T02:51:04;5.33;;;3.33;;
4432;SDS011;2229;48.708;9.706;2024-01-30T02:53:32;5.60;;;3.10;;
4432;SDS011;2229;48.708;9.706;2024-01-30T02:56:00;6.87;;;2.70;;
4432;SDS011;2229;48.708;9.706;2024-01-30T02:58:28;6.03;;;3.60;;
4432;SDS011;2229;48.708;9.706;2024-01-30T03:00:55;5.43;;;3.50;;
4432;SDS011;2229;48.708;9.706;2024-01-30T03:03:22;4.93;;;2.83;;
4432;SDS011;2229;48.708;9.706;2024-01-30T03:05:49;10.20;;;2.83;;
4432;SDS011;2229;48.708;9.706;2024-01-30T03:08:16;5.00;;;2.60;;
4432;SDS011;2229;48.708;9.706;2024-01-30T03:10:43;5.37;;;2.70;;
4432;SDS011;2229;48.708;9.706;2024-01-30T03:13:12;6.20;;;2.97;;
4432;SDS011;2229;48.708;9.706;2024-01-30T03:15:39;5.43;;;2.23;;
4432;SDS011;2229;48.708;9.706;2024-01-30T03:18:06;7.70;;;2.70;;
4432;SDS011;2229;48.708;9.706;2024-01-30T03:20:34;8.30;;;2.70;;
4432;SDS011;2229;48.708;9.706;2024-01-30T03:23:01;7.37;;;2.87;;
4432;SDS011;2229;48.708;9.706;2024-01-30T03:25:28;6.93;;;2.90;;
4432;SDS011;2229;48.708;9.706;2024-01-30T03:27:55;5.13;;;2.83;;
4432;SDS011;2229;48.708;9.706;2024-01-30T03:30:24;3.90;;;2.00;;
4432;SDS011;2229;48.708;9.706;2024-01-30T03:32:51;4.80;;;2.47;;
4432;SDS011;2229;48.708;9.706;2024-01-30T03:35:18;4.70;;;2.63;;
4432;SDS011;2229;48.708;9.706;2024-01-30T03:37:46;15.70;;;2.90;;
4432;SDS011;2229;48.708;9.706;2024-01-30T03:40:13;7.23;;;3.37;;
4432;SDS011;2229;48.708;9.706;2024-01-30T03:42:40;6.17;;;2.90;;
4432;SDS011;2229;48.708;9.706;2024-01-30T03:45:08;6.40;;;3.43;;
4432;SDS011;2229;48.708;9.706;2024-01-30T03:47:37;5.63;;;2.43;;
4432;SDS011;2229;48.708;9.706;2024-01-30T03:50:04;5.27;;;2.70;;
4432;SDS011;2229;48.708;9.706;2024-01-30T03:52:31;3.40;;;2.07;;
4432;SDS011;2229;48.708;9.706;2024-01-30T03:54:59;6.30;;;2.60;;
4432;SDS011;2229;48.708;9.706;2024-01-30T03:57:28;4.73;;;3.07;;
4432;SDS011;2229;48.708;9.706;2024-01-30T03:59:55;5.77;;;2.90;;
4432;SDS011;2229;48.708;9.706;2024-01-30T04:02:22;4.67;;;2.90;;
4432;SDS011;2229;48.708;9.706;2024-01-30T04:04:51;3.77;;;2.63;;
4432;SDS011;2229;48.708;9.706;2024-01-30T04:07:19;5.73;;;3.00;;
4432;SDS011;2229;48.708;9.706;2024-01-30T04:09:46;4.70;;;2.63;;
4432;SDS011;2229;48.708;9.706;2024-01-30T04:12:14;6.90;;;2.73;;
4432;SDS011;2229;48.708;9.706;2024-01-30T04:14:42;5.43;;;2.93;;
4432;SDS011;2229;48.708;9.706;2024-01-30T04:17:09;7.70;;;2.93;;
4432;SDS011;2229;48.708;9.706;2024-01-30T04:19:37;5.07;;;4.00;;
4432;SDS011;2229;48.708;9.706;2024-01-30T04:22:06;5.93;;;3.00;;
4432;SDS011;2229;48.708;9.706;2024-01-30T04:24:33;6.77;;;4.57;;
4432;SDS011;2229;48.708;9.706;2024-01-30T04:27:00;4.60;;;3.10;;
4432;SDS011;2229;48.708;9.706;2024-01-30T04:29:27;4.53;;;2.37;;
4432;SDS011;2229;48.708;9.706;2024-01-30T04:31:55;7.37;;;3.20;;
4432;SDS011;2229;48.708;9.706;2024-01-30T04:34:22;13.73;;;3.23;;
4432;SDS011;2229;48.708;9.706;2024-01-30T04:36:49;5.13;;;3.80;;
4432;SDS011;2229;48.708;9.706;2024-01-30T04:39:18;4.07;;;2.20;;
4432;SDS011;2229;48.708;9.706;2024-01-30T04:41:45;6.23;;;3.53;;
4432;SDS011;2229;48.708;9.706;2024-01-30T04:44:13;9.57;;;3.43;;
4432;SDS011;2229;48.708;9.706;2024-01-30T04:46:40;10.90;;;4.73;;
4432;SDS011;2229;48.708;9.706;2024-01-30T04:49:08;7.80;;;3.70;;
4432;SDS011;2229;48.708;9.706;2024-01-30T04:51:35;14.00;;;3.57;;
4432;SDS011;2229;48.708;9.706;2024-01-30T04:54:03;4.87;;;3.10;;
4432;SDS011;2229;48.708;9.706;2024-01-30T04:56:31;8.50;;;3.17;;
4432;SDS011;2229;48.708;9.706;2024-01-30T04:59:01;5.73;;;2.90;;
4432;SDS011;2229;48.708;9.706;2024-01-30T05:01:29;7.87;;;3.80;;
4432;SDS011;2229;48.708;9.706;2024-01-30T05:03:56;16.03;;;6.80;;
4432;SDS011;2229;48.708;9.706;2024-01-30T05:06:26;19.20;;;6.30;;
4432;SDS011;2229;48.708;9.706;2024-01-30T05:08:53;10.40;;;4.93;;
4432;SDS011;2229;48.708;9.706;2024-01-30T05:11:20;8.80;;;3.60;;
4432;SDS011;2229;48.708;9.706;2024-01-30T05:13:49;5.70;;;3.67;;
4432;SDS011;2229;48.708;9.706;2024-01-30T05:16:17;7.53;;;3.23;;
4432;SDS011;2229;48.708;9.706;2024-01-30T05:18:48;5.53;;;2.03;;
4432;SDS011;2229;48.708;9.706;2024-01-30T05:21:15;3.37;;;1.83;;
4432;SDS011;2229;48.708;9.706;2024-01-30T05:23:42;4.10;;;2.33;;
4432;SDS011;2229;48.708;9.706;2024-01-30T05:26:10;5.43;;;3.03;;
4432;SDS011;2229;48.708;9.706;2024-01-30T05:28:37;5.00;;;2.20;;
4432;SDS011;2229;48.708;9.706;2024-01-30T05:31:05;6.30;;;3.00;;
4432;SDS011;2229;48.708;9.706;2024-01-30T05:33:33;3.87;;;1.80;;
4432;SDS011;2229;48.708;9.706;2024-01-30T05:36:00;3.93;;;2.13;;
4432;SDS011;2229;48.708;9.706;2024-01-30T05:38:27;5.43;;;3.13;;
4432;SDS011;2229;48.708;9.706;2024-01-30T05:40:57;7.53;;;2.60;;
4432;SDS011;2229;48.708;9.706;2024-01-30T05:43:24;9.50;;;2.97;;
4432;SDS011;2229;48.708;9.706;2024-01-30T05:45:51;5.43;;;3.90;;
4432;SDS011;2229;48.708;9.706;2024-01-30T05:48:20;5.13;;;2.23;;
4432;SDS011;2229;48.708;9.706;2024-01-30T05:50:47;3.97;;;2.30;;
4432;SDS011;2229;48.708;9.706;2024-01-30T05:53:14;4.90;;;3.10;;
4432;SDS011;2229;48.708;9.706;2024-01-30T05:55:41;4.90;;;2.67;;
4432;SDS011;2229;48.708;9.706;2024-01-30T05:58:08;3.63;;;2.53;;
4432;SDS011;2229;48.708;9.706;2024-01-30T06:00:35;4.17;;;2.77;;
4432;SDS011;2229;48.708;9.706;2024-01-30T06:03:02;4.27;;;2.27;;
4432;SDS011;2229;48.708;9.706;2024-01-30T06:05:31;3.10;;;2.30;;
4432;SDS011;2229;48.708;9.706;2024-01-30T06:07:58;3.77;;;2.13;;
4432;SDS011;2229;48.708;9.706;2024-01-30T06:10:25;3.70;;;1.90;;
4432;SDS011;2229;48.708;9.706;2024-01-30T06:12:52;5.03;;;2.63;;
4432;SDS011;2229;48.708;9.706;2024-01-30T06:15:19;4.67;;;1.97;;
4432;SDS011;2229;48.708;9.706;2024-01-30T06:17:46;6.00;;;2.17;;
4432;SDS011;2229;48.708;9.706;2024-01-30T06:20:13;5.00;;;2.13;;
4432;SDS011;2229;48.708;9.706;2024-01-30T06:22:42;2.20;;;1.57;;
4432;SDS011;2229;48.708;9.706;2024-01-30T06:25:09;6.77;;;2.87;;
4432;SDS011;2229;48.708;9.706;2024-01-30T06:27:37;4.40;;;2.67;;
4432;SDS011;2229;48.708;9.706;2024-01-30T06:30:06;5.33;;;2.20;;
4432;SDS011;2229;48.708;9.706;2024-01-30T06:32:33;6.87;;;4.07;;
4432;SDS011;2229;48.708;9.706;2024-01-30T06:35:02;5.07;;;2.43;;
4432;SDS011;2229;48.708;9.706;2024-01-30T06:37:29;3.17;;;2.17;;
4432;SDS011;2229;48.708;9.706;2024-01-30T06:39:58;6.73;;;3.10;;
4432;SDS011;2229;48.708;9.706;2024-01-30T06:42:25;4.20;;;2.23;;
4432;SDS011;2229;48.708;9.706;2024-01-30T06:44:52;3.10;;;2.13;;
4432;SDS011;2229;48.708;9.706;2024-01-30T06:47:21;9.73;;;3.00;;
4432;SDS011;2229;48.708;9.706;2024-01-30T06:49:49;5.47;;;2.40;;
4432;SDS011;2229;48.708;9.706;2024-01-30T06:52:16;6.73;;;2.40;;
4432;SDS011;2229;48.708;9.706;2024-01-30T06:54:43;4.93;;;2.73;;
4432;SDS011;2229;48.708;9.706;2024-01-30T06:57:11;5.90;;;2.70;;
4432;SDS011;2229;48.708;9.706;2024-01-30T06:59:39;4.47;;;2.23;;
4432;SDS011;2229;48.708;9.706;2024-01-30T07:02:08;5.83;;;4.00;;
4432;SDS011;2229;48.708;9.706;2024-01-30T07:04:36;3.73;;;2.60;;
4432;SDS011;2229;48.708;9.706;2024-01-30T07:07:04;5.30;;;2.33;;
4432;SDS011;2229;48.708;9.706;2024-01-30T07:09:37;4.73;;;2.23;;
4432;SDS011;2229;48.708;9.706;2024-01-30T07:12:04;3.83;;;2.07;;
4432;SDS011;2229;48.708;9.706;2024-01-30T07:14:36;5.77;;;2.83;;
4432;SDS011;2229;48.708;9.706;2024-01-30T07:17:03;4.40;;;2.13;;
4432;SDS011;2229;48.708;9.706;2024-01-30T07:19:31;4.73;;;2.57;;
4432;SDS011;2229;48.708;9.706;2024-01-30T07:22:00;5.83;;;3.03;;
4432;SDS011;2229;48.708;9.706;2024-01-30T07:24:27;9.10;;;4.40;;
4432;SDS011;2229;48.708;9.706;2024-01-30T07:26:54;3.83;;;2.23;;
4432;SDS011;2229;48.708;9.706;2024-01-30T07:29:21;3.90;;;2.80;;
4432;SDS011;2229;48.708;9.706;2024-01-30T07:31:50;4.23;;;2.10;;
4432;SDS011;2229;48.708;9.706;2024-01-30T07:34:17;4.97;;;3.00;;
4432;SDS011;2229;48.708;9.706;2024-01-30T07:36:44;5.77;;;2.50;;
4432;SDS011;2229;48.708;9.706;2024-01-30T07:39:12;3.30;;;1.87;;
4432;SDS011;2229;48.708;9.706;2024-01-30T07:41:39;4.30;;;2.23;;
4432;SDS011;2229;48.708;9.706;2024-01-30T07:44:06;5.20;;;2.70;;
4432;SDS011;2229;48.708;9.706;2024-01-30T07:46:33;7.83;;;2.30;;
4432;SDS011;2229;48.708;9.706;2024-01-30T07:49:02;3.70;;;2.13;;
4432;SDS011;2229;48.708;9.706;2024-01-30T07:51:29;3.97;;;2.03;;
4432;SDS011;2229;48.708;9.706;2024-01-30T07:53:58;3.50;;;2.10;;
4432;SDS011;2229;48.708;9.706;2024-01-30T07:56:26;3.80;;;2.57;;
4432;SDS011;2229;48.708;9.706;2024-01-30T07:58:53;5.07;;;2.67;;
4432;SDS011;2229;48.708;9.706;2024-01-30T08:01:20;5.87;;;2.43;;
4432;SDS011;2229;48.708;9.706;2024-01-30T08:03:48;5.90;;;1.90;;
4432;SDS011;2229;48.708;9.706;2024-01-30T08:06:17;3.23;;;2.00;;
4432;SDS011;2229;48.708;9.706;2024-01-30T08:08:44;5.50;;;2.10;;
4432;SDS011;2229;48.708;9.706;2024-01-30T08:11:12;4.03;;;2.57;;
4432;SDS011;2229;48.708;9.706;2024-01-30T08:13:39;5.93;;;3.40;;
4432;SDS011;2229;48.708;9.706;2024-01-30T08:16:06;5.03;;;2.23;;
4432;SDS011;2229;48.708;9.706;2024-01-30T08:18:33;10.37;;;4.40;;
4432;SDS011;2229;48.708;9.706;2024-01-30T08:21:00;3.27;;;2.50;;
4432;SDS011;2229;48.708;9.706;2024-01-30T08:23:29;5.37;;;2.83;;
4432;SDS011;2229;48.708;9.706;2024-01-30T08:25:56;7.10;;;3.43;;
4432;SDS011;2229;48.708;9.706;2024-01-30T08:28:24;10.10;;;3.50;;
4432;SDS011;2229;48.708;9.706;2024-01-30T08:30:51;4.20;;;2.50;;
4432;SDS011;2229;48.708;9.706;2024-01-30T08:33:18;4.90;;;2.37;;
4432;SDS011;2229;48.708;9.706;2024-01-30T08:35:46;5.30;;;2.47;;
4432;SDS011;2229;48.708;9.706;2024-01-30T08:38:14;4.30;;;2.50;;
4432;SDS011;2229;48.708;9.706;2024-01-30T08:40:43;6.07;;;2.87;;
4432;SDS011;2229;48.708;9.706;2024-01-30T08:43:10;8.03;;;3.90;;
4432;SDS011;2229;48.708;9.706;2024-01-30T08:45:38;6.67;;;3.90;;
4432;SDS011;2229;48.708;9.706;2024-01-30T08:48:05;8.43;;;4.00;;
4432;SDS011;2229;48.708;9.706;2024-01-30T08:50:33;6.90;;;3.63;;
4432;SDS011;2229;48.708;9.706;2024-01-30T08:53:00;7.97;;;3.70;;
4432;SDS011;2229;48.708;9.706;2024-01-30T08:55:28;9.30;;;3.97;;
4432;SDS011;2229;48.708;9.706;2024-01-30T08:57:56;7.80;;;2.37;;
4432;SDS011;2229;48.708;9.706;2024-01-30T09:00:24;5.27;;;2.47;;
4432;SDS011;2229;48.708;9.706;2024-01-30T09:02:51;9.80;;;3.73;;
4432;SDS011;2229;48.708;9.706;2024-01-30T09:05:18;6.43;;;3.23;;
4432;SDS011;2229;48.708;9.706;2024-01-30T09:07:45;8.00;;;3.83;;
4432;SDS011;2229;48.708;9.706;2024-01-30T09:10:13;6.37;;;3.00;;
4432;SDS011;2229;48.708;9.706;2024-01-30T09:12:40;4.40;;;2.70;;
4432;SDS011;2229;48.708;9.706;2024-01-30T09:15:09;6.77;;;3.77;;
4432;SDS011;2229;48.708;9.706;2024-01-30T09:17:36;11.20;;;3.67;;
4432;SDS011;2229;48.708;9.706;2024-01-30T09:20:04;7.70;;;4.13;;
4432;SDS011;2229;48.708;9.706;2024-01-30T09:22:32;4.93;;;2.67;;
4432;SDS011;2229;48.708;9.706;2024-01-30T09:25:01;8.00;;;3.90;;
4432;SDS011;2229;48.708;9.706;2024-01-30T09:27:28;8.43;;;3.73;;
4432;SDS011;2229;48.708;9.706;2024-01-30T09:29:55;8.93;;;4.00;;
4432;SDS011;2229;48.708;9.706;2024-01-30T09:32:23;5.97;;;4.03;;
4432;SDS011;2229;48.708;9.706;2024-01-30T09:34:51;5.63;;;2.90;;
4432;SDS011;2229;48.708;9.706;2024-01-30T09:37:21;7.50;;;3.10;;
4432;SDS011;2229;48.708;9.706;2024-01-30T09:39:49;6.37;;;3.60;;
4432;SDS011;2229;48.708;9.706;2024-01-30T09:42:18;5.93;;;3.53;;
4432;SDS011;2229;48.708;9.706;2024-01-30T09:45:01;7.57;;;3.43;;
4432;SDS011;2229;48.708;9.706;2024-01-30T09:47:32;5.20;;;2.93;;
4432;SDS011;2229;48.708;9.706;2024-01-30T09:50:01;11.10;;;4.20;;
4432;SDS011;2229;48.708;9.706;2024-01-30T09:52:31;7.67;;;3.80;;
4432;SDS011;2229;48.708;9.706;2024-01-30T09:54:59;10.03;;;3.90;;
4432;SDS011;2229;48.708;9.706;2024-01-30T09:57:27;8.40;;;4.13;;
4432;SDS011;2229;48.708;9.706;2024-01-30T09:59:55;4.63;;;2.70;;
4432;SDS011;2229;48.708;9.706;2024-01-30T10:02:22;6.47;;;3.13;;
4432;SDS011;2229;48.708;9.706;2024-01-30T10:04:51;10.17;;;3.17;;
4432;SDS011;2229;48.708;9.706;2024-01-30T10:07:19;7.63;;;3.40;;
4432;SDS011;2229;48.708;9.706;2024-01-30T10:09:47;8.70;;;3.80;;
4432;SDS011;2229;48.708;9.706;2024-01-30T10:12:15;5.03;;;3.50;;
4432;SDS011;2229;48.708;9.706;2024-01-30T10:14:43;7.27;;;3.53;;
4432;SDS011;2229;48.708;9.706;2024-01-30T10:17:10;6.20;;;3.07;;
4432;SDS011;2229;48.708;9.706;2024-01-30T10:19:39;4.80;;;2.87;;
4432;SDS011;2229;48.708;9.706;2024-01-30T10:22:09;4.53;;;3.50;;
4432;SDS011;2229;48.708;9.706;2024-01-30T10:24:36;5.53;;;2.70;;
4432;SDS011;2229;48.708;9.706;2024-01-30T10:27:05;7.10;;;3.70;;
4432;SDS011;2229;48.708;9.706;2024-01-30T10:29:32;5.37;;;2.87;;
4432;SDS011;2229;48.708;9.706;2024-01-30T10:32:00;5.37;;;3.40;;
4432;SDS011;2229;48.708;9.706;2024-01-30T10:34:27;8.17;;;3.60;;
4432;SDS011;2229;48.708;9.706;2024-01-30T10:36:59;8.50;;;2.90;;
4432;SDS011;2229;48.708;9.706;2024-01-30T10:39:32;5.57;;;2.90;;
4432;SDS011;2229;48.708;9.706;2024-01-30T10:42:04;6.80;;;3.20;;
4432;SDS011;2229;48.708;9.706;2024-01-30T10:44:34;7.70;;;3.83;;
4432;SDS011;2229;48.708;9.706;2024-01-30T10:47:06;6.10;;;3.40;;
4432;SDS011;2229;48.708;9.706;2024-01-30T10:49:36;5.40;;;3.50;;
4432;SDS011;2229;48.708;9.706;2024-01-30T10:52:05;9.30;;;4.20;;
4432;SDS011;2229;48.708;9.706;2024-01-30T10:54:35;8.77;;;4.27;;
4432;SDS011;2229;48.708;9.706;2024-01-30T10:57:04;5.90;;;3.60;;
4432;SDS011;2229;48.708;9.706;2024-01-30T10:59:32;10.10;;;4.47;;
4432;SDS011;2229;48.708;9.706;2024-01-30T11:01:59;11.73;;;4.00;;
4432;SDS011;2229;48.708;9.706;2024-01-30T11:04:35;7.80;;;3.67;;
4432;SDS011;2229;48.708;9.706;2024-01-30T11:07:02;14.40;;;3.90;;
4432;SDS011;2229;48.708;9.706;2024-01-30T11:09:41;6.73;;;4.13;;
4432;SDS011;2229;48.708;9.706;2024-01-30T11:12:16;9.97;;;3.30;;
4432;SDS011;2229;48.708;9.706;2024-01-30T11:14:43;7.80;;;3.77;;
4432;SDS011;2229;48.708;9.706;2024-01-30T11:17:10;8.30;;;3.83;;
4432;SDS011;2229;48.708;9.706;2024-01-30T11:19:38;7.27;;;4.00;;
4432;SDS011;2229;48.708;9.706;2024-01-30T11:22:07;6.40;;;3.73;;
4432;SDS011;2229;48.708;9.706;2024-01-30T11:24:38;7.90;;;3.80;;
4432;SDS011;2229;48.708;9.706;2024-01-30T11:27:08;8.53;;;3.93;;
4432;SDS011;2229;48.708;9.706;2024-01-30T11:29:35;5.83;;;3.50;;
4432;SDS011;2229;48.708;9.706;2024-01-30T11:32:03;10.20;;;4.03;;
4432;SDS011;2229;48.708;9.706;2024-01-30T11:34:32;6.53;;;2.70;;
4432;SDS011;2229;48.708;9.706;2024-01-30T11:37:03;10.67;;;2.90;;
4432;SDS011;2229;48.708;9.706;2024-01-30T11:39:35;5.23;;;2.80;;
4432;SDS011;2229;48.708;9.706;2024-01-30T11:42:06;7.50;;;3.47;;
4432;SDS011;2229;48.708;9.706;2024-01-30T11:44:35;6.60;;;3.37;;
4432;SDS011;2229;48.708;9.706;2024-01-30T11:47:02;6.50;;;3.57;;
4432;SDS011;2229;48.708;9.706;2024-01-30T11:49:29;5.20;;;3.23;;
4432;SDS011;2229;48.708;9.706;2024-01-30T11:51:57;9.50;;;3.50;;
4432;SDS011;2229;48.708;9.706;2024-01-30T11:54:24;7.17;;;3.03;;
4432;SDS011;2229;48.708;9.706;2024-01-30T11:56:52;5.27;;;2.80;;
4432;SDS011;2229;48.708;9.706;2024-01-30T11:59:20;5.20;;;2.73;;
4432;SDS011;2229;48.708;9.706;2024-01-30T12:01:47;4.33;;;2.67;;
4432;SDS011;2229;48.708;9.706;2024-01-30T12:04:15;3.70;;;2.20;;
4432;SDS011;2229;48.708;9.706;2024-01-30T12:06:42;3.87;;;1.97;;
4432;SDS011;2229;48.708;9.706;2024-01-30T12:09:09;4.53;;;1.97;;
4432;SDS011;2229;48.708;9.706;2024-01-30T12:11:45;7.13;;;2.67;;
4432;SDS011;2229;48.708;9.706;2024-01-30T12:14:12;5.07;;;2.07;;
4432;SDS011;2229;48.708;9.706;2024-01-30T12:16:41;3.47;;;1.90;;
4432;SDS011;2229;48.708;9.706;2024-01-30T12:19:08;5.10;;;3.10;;
4432;SDS011;2229;48.708;9.706;2024-01-30T12:21:35;5.43;;;2.27;;
4432;SDS011;2229;48.708;9.706;2024-01-30T12:24:02;9.37;;;2.93;;
4432;SDS011;2229;48.708;9.706;2024-01-30T12:26:32;2.87;;;1.77;;
4432;SDS011;2229;48.708;9.706;2024-01-30T12:29:03;4.87;;;2.00;;
4432;SDS011;2229;48.708;9.706;2024-01-30T12:31:33;4.77;;;2.20;;
4432;SDS011;2229;48.708;9.706;2024-01-30T12:34:02;4.60;;;2.20;;
4432;SDS011;2229;48.708;9.706;2024-01-30T12:36:30;3.40;;;1.53;;
4432;SDS011;2229;48.708;9.706;2024-01-30T12:38:57;4.70;;;2.77;;
4432;SDS011;2229;48.708;9.706;2024-01-30T12:41:24;4.10;;;1.90;;
4432;SDS011;2229;48.708;9.706;2024-01-30T12:43:53;4.17;;;1.77;;
4432;SDS011;2229;48.708;9.706;2024-01-30T12:46:21;3.83;;;2.03;;
4432;SDS011;2229;48.708;9.706;2024-01-30T12:48:51;3.63;;;1.97;;
4432;SDS011;2229;48.708;9.706;2024-01-30T12:51:20;4.10;;;2.00;;
4432;SDS011;2229;48.708;9.706;2024-01-30T12:53:47;8.30;;;2.37;;
4432;SDS011;2229;48.708;9.706;2024-01-30T12:56:14;6.60;;;1.47;;
4432;SDS011;2229;48.708;9.706;2024-01-30T12:58:42;6.57;;;1.93;;
4432;SDS011;2229;48.708;9.706;2024-01-30T13:01:09;4.23;;;1.93;;
4432;SDS011;2229;48.708;9.706;2024-01-30T13:03:36;3.40;;;1.93;;
4432;SDS011;2229;48.708;9.706;2024-01-30T13:06:04;2.70;;;1.73;;
4432;SDS011;2229;48.708;9.706;2024-01-30T13:08:32;11.83;;;1.80;;
4432;SDS011;2229;48.708;9.706;2024-01-30T13:10:59;3.30;;;1.60;;
4432;SDS011;2229;48.708;9.706;2024-01-30T13:13:26;2.13;;;1.20;;
4432;SDS011;2229;48.708;9.706;2024-01-30T13:15:53;3.33;;;1.93;;
4432;SDS011;2229;48.708;9.706;2024-01-30T13:18:20;4.00;;;1.77;;
4432;SDS011;2229;48.708;9.706;2024-01-30T13:20:47;14.23;;;1.50;;
4432;SDS011;2229;48.708;9.706;2024-01-30T13:23:17;3.83;;;1.43;;
4432;SDS011;2229;48.708;9.706;2024-01-30T13:25:46;2.90;;;1.83;;
4432;SDS011;2229;48.708;9.706;2024-01-30T13:28:13;2.80;;;1.37;;
4432;SDS011;2229;48.708;9.706;2024-01-30T13:30:40;4.10;;;2.00;;
4432;SDS011;2229;48.708;9.706;2024-01-30T13:33:07;3.90;;;2.30;;
4432;SDS011;2229;48.708;9.706;2024-01-30T13:35:34;4.73;;;2.40;;
4432;SDS011;2229;48.708;9.706;2024-01-30T13:38:01;6.37;;;2.53;;
4432;SDS011;2229;48.708;9.706;2024-01-30T13:40:29;3.10;;;2.30;;
4432;SDS011;2229;48.708;9.706;2024-01-30T13:42:57;4.60;;;2.00;;
4432;SDS011;2229;48.708;9.706;2024-01-30T13:45:24;3.73;;;1.60;;
4432;SDS011;2229;48.708;9.706;2024-01-30T13:47:51;4.10;;;2.20;;
4432;SDS011;2229;48.708;9.706;2024-01-30T13:50:18;6.20;;;2.33;;
4432;SDS011;2229;48.708;9.706;2024-01-30T13:52:45;6.80;;;1.93;;
4432;SDS011;2229;48.708;9.706;2024-01-30T13:55:13;6.70;;;2.43;;
4432;SDS011;2229;48.708;9.706;2024-01-30T13:57:41;3.57;;;2.60;;
4432;SDS011;2229;48.708;9.706;2024-01-30T14:00:10;4.60;;;2.00;;
4432;SDS011;2229;48.708;9.706;2024-01-30T14:02:41;4.90;;;1.60;;
4432;SDS011;2229;48.708;9.706;2024-01-30T14:05:08;5.70;;;2.23;;
4432;SDS011;2229;48.708;9.706;2024-01-30T14:07:36;3.17;;;1.17;;
4432;SDS011;2229;48.708;9.706;2024-01-30T14:10:06;5.50;;;2.00;;
4432;SDS011;2229;48.708;9.706;2024-01-30T14:12:33;2.40;;;1.30;;
4432;SDS011;2229;48.708;9.706;2024-01-30T14:15:00;2.13;;;1.50;;
4432;SDS011;2229;48.708;9.706;2024-01-30T14:17:29;4.00;;;1.23;;
4432;SDS011;2229;48.708;9.706;2024-01-30T14:19:56;2.83;;;1.37;;
4432;SDS011;2229;48.708;9.706;2024-01-30T14:22:23;5.10;;;2.00;;
4432;SDS011;2229;48.708;9.706;2024-01-30T14:24:50;5.27;;;2.23;;
4432;SDS011;2229;48.708;9.706;2024-01-30T14:27:18;4.37;;;1.77;;
4432;SDS011;2229;48.708;9.706;2024-01-30T14:29:45;1.73;;;1.00;;
4432;SDS011;2229;48.708;9.706;2024-01-30T14:32:12;3.10;;;1.30;;
4432;SDS011;2229;48.708;9.706;2024-01-30T14:34:41;3.90;;;1.80;;
4432;SDS011;2229;48.708;9.706;2024-01-30T14:37:08;2.60;;;1.73;;
4432;SDS011;2229;48.708;9.706;2024-01-30T14:39:35;2.80;;;1.40;;
4432;SDS011;2229;48.708;9.706;2024-01-30T14:42:02;2.33;;;1.37;;
4432;SDS011;2229;48.708;9.706;2024-01-30T14:44:30;3.10;;;1.67;;
4432;SDS011;2229;48.708;9.706;2024-01-30T14:46:57;3.40;;;1.50;;
4432;SDS011;2229;48.708;9.706;2024-01-30T14:49:24;3.57;;;1.33;;
4432;SDS011;2229;48.708;9.706;2024-01-30T14:51:53;4.27;;;2.03;;
4432;SDS011;2229;48.708;9.706;2024-01-30T14:54:20;5.43;;;1.80;;
4432;SDS011;2229;48.708;9.706;2024-01-30T14:56:48;9.80;;;2.87;;
4432;SDS011;2229;48.708;9.706;2024-01-30T14:59:15;6.27;;;2.70;;
4432;SDS011;2229;48.708;9.706;2024-01-30T15:01:42;5.93;;;2.40;;
4432;SDS011;2229;48.708;9.706;2024-01-30T15:04:10;8.40;;;3.80;;
4432;SDS011;2229;48.708;9.706;2024-01-30T15:06:37;12.83;;;5.37;;
4432;SDS011;2229;48.708;9.706;2024-01-30T15:09:12;8.90;;;3.33;;
4432;SDS011;2229;48.708;9.706;2024-01-30T15:11:40;6.70;;;3.27;;
4432;SDS011;2229;48.708;9.706;2024-01-30T15:14:08;8.90;;;2.83;;
4432;SDS011;2229;48.708;9.706;2024-01-30T15:16:36;5.30;;;2.50;;
4432;SDS011;2229;48.708;9.706;2024-01-30T15:19:04;7.63;;;3.13;;